Time;durP1;ratioP1;P1;durP2;ratioP2;P2;SDS_P1;SDS_P2;PMS_P1;PMS_P2;Temp;Humidity;BMP_temperature;BMP_pressure;BME280_temperature;BME280_humidity;BME280_pressure;Samples;Min_cycle;Max_cycle;Signal;HPM_P1;HPM_P2
2022/12/11 00:00:20;;;;;;;25.67;17.40;;;;;;;-1.67;100.00;150946.56;5102416;28;20881;-88
2022/12/11 00:03:06;;;;;;;22.50;15.30;;;;;;;-1.61;100.00;150961.91;5102956;28;20592;-87
2022/12/11 00:05:52;;;;;;;20.10;15.00;;;;;;;-1.62;100.00;150959.38;5113058;28;20813;-88
2022/12/11 00:08:38;;;;;;;20.23;13.33;;;;;;;-1.56;100.00;150974.72;5124086;27;20536;-88
2022/12/11 00:11:23;;;;;;;21.63;12.97;;;;;;;-1.52;100.00;150983.72;5103380;28;20550;-88
2022/12/11 00:14:09;;;;;;;19.53;12.87;;;;;;;-1.54;100.00;150979.88;5113914;28;20782;-88
2022/12/11 00:16:54;;;;;;;20.00;13.40;;;;;;;-1.55;100.00;150977.28;5102576;27;20506;-88
2022/12/11 00:19:39;;;;;;;14.80;12.43;;;;;;;-1.57;100.00;150972.19;5106466;28;20411;-88
2022/12/11 00:22:26;;;;;;;22.77;13.00;;;;;;;-1.50;100.00;150990.09;5114184;28;20404;-88
2022/12/11 00:25:11;;;;;;;18.47;13.40;;;;;;;-1.52;100.00;150985.00;5094822;28;20534;-88
2022/12/11 00:27:57;;;;;;;16.50;12.60;;;;;;;-1.53;100.00;150982.41;5102257;28;20509;-88
2022/12/11 00:30:42;;;;;;;19.27;13.73;;;;;;;-1.51;100.00;150987.53;5091725;28;20451;-88
2022/12/11 00:33:28;;;;;;;19.63;13.03;;;;;;;-1.55;100.00;150977.28;5095507;27;20747;-88
2022/12/11 00:36:15;;;;;;;20.00;13.20;;;;;;;-1.58;100.00;150968.31;5113941;27;20444;-88
2022/12/11 00:39:03;;;;;;;17.40;12.97;;;;;;;-1.59;100.00;150967.03;5095433;28;20440;-88
2022/12/11 00:41:48;;;;;;;16.73;11.30;;;;;;;-1.61;100.00;150961.91;5093489;28;20437;-88
2022/12/11 00:44:34;;;;;;;19.00;13.07;;;;;;;-1.54;100.00;150979.88;5095552;28;20514;-88
2022/12/11 00:47:19;;;;;;;19.00;12.60;;;;;;;-1.52;100.00;150985.00;5105553;28;20432;-88
2022/12/11 00:50:05;;;;;;;17.93;13.20;;;;;;;-1.51;100.00;150987.53;5097973;27;20523;-88
2022/12/11 00:52:51;;;;;;;21.93;14.60;;;;;;;-1.50;100.00;150988.81;5091793;28;20460;-88
2022/12/11 00:55:38;;;;;;;22.80;15.83;;;;;;;-1.49;100.00;150992.69;5099111;28;20577;-88
2022/12/11 00:58:24;;;;;;;15.87;11.40;;;;;;;-1.54;100.00;150978.59;5111930;28;20838;-88
2022/12/11 01:01:12;;;;;;;19.40;13.83;;;;;;;-1.59;100.00;150967.03;5113474;28;20435;-88
2022/12/11 01:03:58;;;;;;;20.20;14.53;;;;;;;-1.56;100.00;150974.72;5098552;28;20435;-88
2022/12/11 01:06:43;;;;;;;18.90;13.30;;;;;;;-1.55;100.00;150977.28;5098578;28;20431;-88
2022/12/11 01:12:33;;;;;;;19.73;13.40;;;;;;;-1.46;100.00;151000.38;5110138;28;20504;-88
2022/12/11 01:15:19;;;;;;;20.93;14.67;;;;;;;-1.43;100.00;151008.03;5099788;28;20472;-88
2022/12/11 01:18:05;;;;;;;21.20;13.90;;;;;;;-1.41;100.00;151013.19;5092336;28;20400;-88
2022/12/11 01:20:50;;;;;;;20.00;13.90;;;;;;;-1.39;100.00;151018.31;5091843;28;20452;-88
2022/12/11 01:23:36;;;;;;;20.17;14.03;;;;;;;-1.35;100.00;151028.53;5096807;28;20433;-88
2022/12/11 01:26:22;;;;;;;18.97;13.97;;;;;;;-1.33;100.00;151033.69;5092059;28;20456;-89
2022/12/11 01:29:08;;;;;;;18.80;13.17;;;;;;;-1.30;100.00;151041.34;5094843;28;20467;-88
2022/12/11 01:31:54;;;;;;;19.50;13.20;;;;;;;-1.30;100.00;151040.13;5097631;28;20582;-88
2022/12/11 01:34:39;;;;;;;20.90;13.87;;;;;;;-1.30;100.00;151040.13;5101857;27;20962;-88
2022/12/11 01:37:25;;;;;;;19.03;15.23;;;;;;;-1.32;100.00;151036.22;5092254;28;20927;-88
2022/12/11 01:40:12;;;;;;;19.10;13.97;;;;;;;-1.31;100.00;151038.81;5097362;28;20436;-88
2022/12/11 01:42:58;;;;;;;20.73;14.07;;;;;;;-1.30;100.00;151041.34;5091579;28;20946;-88
2022/12/11 01:45:46;;;;;;;17.93;12.73;;;;;;;-1.32;100.00;151034.94;5099076;28;20479;-88
2022/12/11 01:48:32;;;;;;;18.83;12.77;;;;;;;-1.30;100.00;151040.13;5107462;28;21869;-88
2022/12/11 01:51:17;;;;;;;20.80;14.77;;;;;;;-1.28;100.00;151045.22;5130503;28;20419;-88
2022/12/11 01:54:06;;;;;;;18.13;13.60;;;;;;;-1.24;100.00;151056.75;5096584;28;21066;-88
2022/12/11 01:56:52;;;;;;;19.13;12.23;;;;;;;-1.28;100.00;151046.50;5100389;28;20439;-88
2022/12/11 01:59:40;;;;;;;15.30;11.73;;;;;;;-1.31;100.00;151037.53;5110387;28;20823;-88
2022/12/11 02:02:29;;;;;;;18.13;12.60;;;;;;;-1.25;100.00;151052.91;5110325;28;20548;-88
2022/12/11 02:05:15;;;;;;;17.00;12.87;;;;;;;-1.22;100.00;151060.63;5107641;28;20933;-88
2022/12/11 02:08:01;;;;;;;19.57;12.90;;;;;;;-1.28;100.00;151046.50;5104689;28;20493;-88
2022/12/11 02:11:00;;;;;;;17.67;12.10;;;;;;;-1.22;100.00;151060.63;5111958;28;20426;-88
2022/12/11 02:13:51;;;;;;;16.87;12.40;;;;;;;-1.22;100.00;151060.63;5104781;28;20794;-88
2022/12/11 02:16:42;;;;;;;16.40;12.20;;;;;;;-1.25;100.00;151054.22;5100395;28;20440;-88
2022/12/11 02:19:44;;;;;;;18.43;11.87;;;;;;;-1.18;100.00;151069.56;5091758;28;20435;-88
2022/12/11 02:22:47;;;;;;;17.87;13.87;;;;;;;-1.22;100.00;151061.88;5093266;28;20409;-88
2022/12/11 02:25:34;;;;;;;19.23;14.07;;;;;;;-1.18;100.00;151069.56;5096376;28;20505;-88
2022/12/11 02:28:25;;;;;;;18.33;12.13;;;;;;;-1.18;100.00;151069.56;5092045;28;20428;-88
2022/12/11 02:31:14;;;;;;;17.90;12.03;;;;;;;-1.19;100.00;151068.28;5096065;28;20459;-87
2022/12/11 02:34:03;;;;;;;18.80;12.67;;;;;;;-1.20;100.00;151064.44;5109476;28;20459;-88
2022/12/11 02:36:55;;;;;;;15.53;11.83;;;;;;;-1.22;100.00;151061.88;5103694;28;20901;-89
2022/12/11 02:39:43;;;;;;;17.20;12.60;;;;;;;-1.24;100.00;151056.75;5096639;28;20501;-88
2022/12/11 02:42:30;;;;;;;16.60;11.70;;;;;;;-1.25;100.00;151054.22;5101845;28;20451;-87
2022/12/11 02:45:18;;;;;;;16.93;11.57;;;;;;;-1.23;100.00;151059.34;5104632;28;20471;-87
2022/12/11 02:48:04;;;;;;;16.30;12.67;;;;;;;-1.19;100.00;151068.28;5111177;28;20408;-88
2022/12/11 02:50:52;;;;;;;18.80;13.20;;;;;;;-1.20;100.00;151064.44;5101657;28;20452;-88
2022/12/11 02:53:40;;;;;;;20.00;12.87;;;;;;;-1.22;100.00;151060.63;5109486;28;20447;-87
2022/12/11 02:56:28;;;;;;;21.57;13.53;;;;;;;-1.23;100.00;151059.34;5114306;28;20431;-87
2022/12/11 02:59:16;;;;;;;18.67;13.00;;;;;;;-1.25;100.00;151054.22;5107472;28;20481;-88
2022/12/11 03:02:03;;;;;;;20.77;13.47;;;;;;;-1.25;100.00;151054.22;5113641;28;20463;-87
2022/12/11 03:04:49;;;;;;;16.93;13.43;;;;;;;-1.22;100.00;151060.63;5115501;28;20572;-87
2022/12/11 03:07:37;;;;;;;19.77;12.93;;;;;;;-1.22;100.00;151060.63;5100344;27;20448;-87
2022/12/11 03:10:22;;;;;;;14.60;12.03;;;;;;;-1.23;100.00;151058.03;5094087;28;20610;-87
2022/12/11 03:13:07;;;;;;;17.13;12.50;;;;;;;-1.24;100.00;151056.75;5094249;28;20517;-87
2022/12/11 03:16:05;;;;;;;17.50;12.93;;;;;;;-1.24;100.00;151055.44;5095058;28;20513;-87
2022/12/11 03:18:57;;;;;;;15.90;12.10;;;;;;;-1.25;100.00;151054.22;5104555;27;20666;-87
2022/12/11 03:21:45;;;;;;;15.87;11.73;;;;;;;-1.20;100.00;151064.44;5110093;28;20435;-87
2022/12/11 03:24:35;;;;;;;18.27;12.90;;;;;;;-1.18;100.00;151069.56;5114578;28;20875;-87
2022/12/11 03:27:26;;;;;;;15.40;11.43;;;;;;;-1.19;100.00;151067.03;5100552;28;20502;-87
2022/12/11 03:30:13;;;;;;;17.33;12.53;;;;;;;-1.17;100.00;151073.44;5109118;28;20475;-88
2022/12/11 03:33:02;;;;;;;16.17;12.03;;;;;;;-1.16;100.00;151074.66;5099040;27;20578;-88
2022/12/11 03:35:51;;;;;;;16.43;12.17;;;;;;;-1.19;100.00;151067.03;5105276;28;20463;-88
2022/12/11 03:38:38;;;;;;;17.40;11.90;;;;;;;-1.19;100.00;151067.03;5111019;28;20431;-88
2022/12/11 03:41:26;;;;;;;15.10;10.90;;;;;;;-1.19;100.00;151067.03;5115150;28;20427;-88
2022/12/11 03:44:12;;;;;;;17.50;11.70;;;;;;;-1.23;100.00;151059.34;5111785;28;20440;-88
2022/12/11 03:46:59;;;;;;;18.40;12.30;;;;;;;-1.22;100.00;151060.63;5098352;28;20475;-88
2022/12/11 03:49:45;;;;;;;20.00;13.47;;;;;;;-1.20;100.00;151064.44;5100427;28;21033;-87
2022/12/11 03:52:32;;;;;;;18.50;12.00;;;;;;;-1.22;100.00;151061.88;5096085;28;20959;-88
2022/12/11 03:55:19;;;;;;;16.80;12.13;;;;;;;-1.20;100.00;151065.72;5112291;28;20528;-88
2022/12/11 03:58:05;;;;;;;19.00;14.07;;;;;;;-1.22;100.00;151060.63;5097398;28;20503;-88
2022/12/11 04:00:50;;;;;;;17.10;12.57;;;;;;;-1.19;100.00;151068.28;5095836;28;20584;-88
2022/12/11 04:03:35;;;;;;;16.40;11.80;;;;;;;-1.26;100.00;151051.63;5102019;28;20578;-88
2022/12/11 04:06:21;;;;;;;18.37;12.10;;;;;;;-1.29;100.00;151043.94;5105024;28;20439;-88
2022/12/11 04:09:08;;;;;;;20.07;12.90;;;;;;;-1.31;100.00;151038.81;5112945;28;20455;-88
2022/12/11 04:11:53;;;;;;;17.33;13.00;;;;;;;-1.33;100.00;151033.69;5108654;28;20565;-88
2022/12/11 04:26:51;;;;;;;17.30;11.97;;;;;;;-1.43;100.00;151008.03;5102347;28;20444;-88
2022/12/11 04:29:36;;;;;;;15.83;11.47;;;;;;;-1.45;100.00;151002.91;5103590;27;20455;-88
2022/12/11 04:32:22;;;;;;;18.47;12.70;;;;;;;-1.45;100.00;151002.91;5093440;28;20401;-88
2022/12/11 04:35:08;;;;;;;13.40;11.17;;;;;;;-1.42;100.00;151010.63;5093292;28;20452;-88
2022/12/11 04:37:54;;;;;;;15.00;10.53;;;;;;;-1.49;100.00;150991.41;5100763;28;20451;-89
2022/12/11 04:40:39;;;;;;;14.60;10.27;;;;;;;-1.48;100.00;150995.22;5096066;28;20448;-89
2022/12/11 04:43:27;;;;;;;15.63;10.57;;;;;;;-1.48;100.00;150995.22;5102346;27;20456;-88
2022/12/11 04:46:14;;;;;;;13.13;9.90;;;;;;;-1.49;100.00;150992.69;5092533;28;20827;-87
2022/12/11 04:48:59;;;;;;;19.80;10.03;;;;;;;-1.47;100.00;150997.81;5097779;28;20813;-88
2022/12/11 04:51:45;;;;;;;13.67;10.00;;;;;;;-1.51;100.00;150987.53;5108513;28;20489;-88
2022/12/11 04:54:30;;;;;;;14.73;10.70;;;;;;;-1.52;100.00;150985.00;5101629;28;20606;-88
2022/12/11 04:57:15;;;;;;;13.93;10.43;;;;;;;-1.50;100.00;150990.09;5105249;28;20474;-88
2022/12/11 05:00:03;;;;;;;15.30;10.93;;;;;;;-1.53;100.00;150981.13;5107509;28;20510;-89
2022/12/11 05:02:48;;;;;;;14.80;10.20;;;;;;;-1.53;100.00;150982.41;5105430;28;20405;-89
2022/12/11 05:05:34;;;;;;;13.27;9.60;;;;;;;-1.50;100.00;150990.09;5099521;28;20532;-88
2022/12/11 05:08:20;;;;;;;14.60;10.77;;;;;;;-1.50;100.00;150988.81;5110528;28;20477;-89
2022/12/11 05:11:08;;;;;;;17.53;10.70;;;;;;;-1.50;100.00;150988.81;5105854;28;20616;-88
2022/12/11 05:13:53;;;;;;;13.07;9.83;;;;;;;-1.53;100.00;150982.41;5111825;28;20489;-89
2022/12/11 05:16:40;;;;;;;13.00;9.77;;;;;;;-1.52;100.00;150985.00;5108288;28;20447;-88
2022/12/11 05:19:26;;;;;;;13.57;9.00;;;;;;;-1.49;100.00;150992.69;5092881;28;20396;-88
2022/12/11 05:22:11;;;;;;;13.47;9.83;;;;;;;-1.53;100.00;150982.41;5111879;28;20911;-89
2022/12/11 05:24:56;;;;;;;13.30;10.00;;;;;;;-1.53;100.00;150982.41;5101170;28;20451;-89
2022/12/11 05:27:41;;;;;;;13.83;9.63;;;;;;;-1.53;100.00;150982.41;5102420;28;20437;-89
2022/12/11 05:30:27;;;;;;;13.60;9.47;;;;;;;-1.54;100.00;150979.88;5100767;28;20981;-89
2022/12/11 05:33:14;;;;;;;13.13;9.83;;;;;;;-1.53;100.00;150982.41;5108755;28;20431;-89
2022/12/11 05:35:59;;;;;;;14.57;10.37;;;;;;;-1.56;100.00;150974.72;5092493;28;20448;-89
2022/12/11 05:38:45;;;;;;;14.33;9.67;;;;;;;-1.64;100.00;150954.22;5104664;28;20794;-89
2022/12/11 05:41:31;;;;;;;13.73;9.87;;;;;;;-1.68;100.00;150943.97;5098362;28;20478;-89
2022/12/11 05:44:16;;;;;;;14.27;10.23;;;;;;;-1.69;100.00;150940.13;5092142;28;20539;-88
2022/12/11 05:47:02;;;;;;;14.93;10.10;;;;;;;-1.76;100.00;150923.47;5096052;28;20425;-89
2022/12/11 05:49:48;;;;;;;14.93;9.40;;;;;;;-1.81;100.00;150910.69;5096690;28;20532;-89
2022/12/11 05:52:33;;;;;;;14.03;9.93;;;;;;;-1.85;100.00;150901.69;5109345;28;20516;-89
2022/12/11 05:55:19;;;;;;;13.00;9.27;;;;;;;-1.92;100.00;150882.50;5095152;28;20926;-89
2022/12/11 05:58:04;;;;;;;15.30;10.20;;;;;;;-1.97;100.00;150870.97;5091955;28;20397;-89
2022/12/11 06:00:49;;;;;;;14.27;9.70;;;;;;;-2.05;100.00;150849.19;5100748;28;20459;-88
2022/12/11 06:03:35;;;;;;;14.97;10.57;;;;;;;-2.13;100.00;150828.69;5105344;28;20428;-89
2022/12/11 06:06:22;;;;;;;15.30;9.73;;;;;;;-2.14;100.00;150826.13;5103600;28;20528;-89
2022/12/11 06:09:07;;;;;;;14.33;9.97;;;;;;;-2.15;100.00;150823.59;5103519;28;20955;-88
2022/12/11 06:11:52;;;;;;;14.00;10.43;;;;;;;-2.19;100.00;150813.31;5091845;28;21061;-89
2022/12/11 06:14:38;;;;;;;12.77;8.33;;;;;;;-2.24;100.00;150801.81;5111186;28;20451;-89
2022/12/11 06:17:23;;;;;;;12.63;9.23;;;;;;;-2.28;100.00;150791.59;5111423;28;20546;-89
2022/12/11 06:20:09;;;;;;;15.17;9.57;;;;;;;-2.34;100.00;150774.91;5095431;28;20487;-89
2022/12/11 06:22:55;;;;;;;12.47;8.97;;;;;;;-2.39;100.00;150762.09;5103971;28;20442;-88
2022/12/11 06:25:41;;;;;;;15.20;8.90;;;;;;;-2.41;100.00;150757.00;5096893;28;20444;-89
2022/12/11 06:28:26;;;;;;;13.60;9.33;;;;;;;-2.46;100.00;150745.44;5097085;28;20436;-88
2022/12/11 06:31:12;;;;;;;13.83;9.17;;;;;;;-2.52;100.00;150731.41;5100670;28;20946;-88
2022/12/11 06:33:57;;;;;;;12.97;8.83;;;;;;;-2.56;100.00;150721.13;5114641;28;20501;-88
2022/12/11 06:36:43;;;;;;;13.97;9.27;;;;;;;-2.60;100.00;150710.91;5105038;28;20793;-88
2022/12/11 06:39:30;;;;;;;15.90;9.43;;;;;;;-2.67;100.00;150692.97;5094107;28;20759;-88
2022/12/11 06:42:16;;;;;;;17.53;9.83;;;;;;;-2.71;100.00;150682.75;5095680;28;20466;-88
2022/12/11 06:45:02;;;;;;;11.93;8.47;;;;;;;-2.76;100.00;150668.66;5096187;28;20487;-88
2022/12/11 06:47:48;;;;;;;12.10;8.80;;;;;;;-2.79;100.00;150660.97;5096113;28;20404;-88
2022/12/11 06:50:33;;;;;;;12.90;9.50;;;;;;;-2.82;100.00;150654.56;5095486;28;20463;-88
2022/12/11 06:53:19;;;;;;;14.70;9.70;;;;;;;-2.83;100.00;150652.00;5094099;28;20750;-88
2022/12/11 06:56:08;;;;;;;15.00;9.63;;;;;;;-2.79;100.00;150662.25;5095007;28;21025;-88
2022/12/11 06:58:55;;;;;;;14.20;9.77;;;;;;;-2.78;100.00;150663.56;5095855;28;20788;-88
2022/12/11 07:01:41;;;;;;;16.03;10.87;;;;;;;-2.74;100.00;150673.78;5101359;27;20605;-88
2022/12/11 07:04:26;;;;;;;16.17;9.80;;;;;;;-2.59;100.00;150712.16;5096704;28;20444;-88
2022/12/11 07:07:12;;;;;;;14.10;10.20;;;;;;;-2.55;100.00;150722.44;5093702;28;20550;-88
2022/12/11 07:09:57;;;;;;;11.40;8.93;;;;;;;-2.52;100.00;150731.41;5103238;27;20520;-88
2022/12/11 07:12:44;;;;;;;15.53;9.50;;;;;;;-2.48;100.00;150741.63;5109075;28;20471;-88
2022/12/11 07:15:29;;;;;;;13.53;9.63;;;;;;;-2.48;100.00;150741.63;5114151;28;20513;-88
2022/12/11 07:18:14;;;;;;;17.37;11.10;;;;;;;-2.47;100.00;150742.91;5094973;28;20404;-88
2022/12/11 07:21:00;;;;;;;14.20;10.20;;;;;;;-2.43;100.00;150751.84;5100074;27;20937;-88
2022/12/11 07:23:45;;;;;;;16.80;10.70;;;;;;;-2.42;100.00;150755.72;5101202;28;20505;-88
2022/12/11 07:26:31;;;;;;;14.90;10.30;;;;;;;-2.35;100.00;150772.31;5098752;28;20443;-87
2022/12/11 07:29:18;;;;;;;15.77;10.07;;;;;;;-2.28;100.00;150790.28;5099506;27;20906;-88
2022/12/11 07:32:03;;;;;;;15.63;10.30;;;;;;;-2.24;100.00;150800.50;5103715;27;20757;-88
2022/12/11 07:34:50;;;;;;;17.53;11.40;;;;;;;-2.18;100.00;150817.19;5095929;27;20907;-88
2022/12/11 07:37:35;;;;;;;17.30;11.10;;;;;;;-2.10;100.00;150837.69;5106018;27;20487;-88
2022/12/11 07:40:20;;;;;;;14.60;10.87;;;;;;;-2.04;100.00;150851.78;5105779;28;20447;-88
2022/12/11 07:43:06;;;;;;;18.00;11.70;;;;;;;-2.04;100.00;150851.78;5115520;28;20412;-88
2022/12/11 07:45:53;;;;;;;14.80;9.83;;;;;;;-2.08;100.00;150842.78;5101508;27;20478;-88
2022/12/11 07:48:39;;;;;;;14.97;10.23;;;;;;;-2.06;100.00;150846.59;5099803;27;20431;-87
2022/12/11 07:51:27;;;;;;;15.63;9.93;;;;;;;-2.05;100.00;150850.47;5103620;28;21019;-87
2022/12/11 07:54:15;;;;;;;14.00;9.23;;;;;;;-2.03;100.00;150854.31;5098772;27;20455;-88
2022/12/11 07:57:01;;;;;;;20.23;12.23;;;;;;;-2.04;100.00;150853.00;5099529;28;20984;-87
2022/12/11 07:59:46;;;;;;;14.80;11.30;;;;;;;-2.03;100.00;150854.31;5101140;28;20958;-88
2022/12/11 08:02:33;;;;;;;16.60;10.90;;;;;;;-1.95;100.00;150876.09;5129847;27;20468;-87
2022/12/11 08:05:19;;;;;;;17.00;11.90;;;;;;;-1.89;100.00;150890.19;5103229;27;20455;-88
2022/12/11 08:08:05;;;;;;;17.90;12.13;;;;;;;-1.83;100.00;150905.56;5102358;27;20980;-88
2022/12/11 08:10:50;;;;;;;19.27;12.87;;;;;;;-1.74;100.00;150928.59;5104717;27;20464;-87
2022/12/11 08:13:36;;;;;;;14.80;11.13;;;;;;;-1.67;100.00;150945.28;5111645;28;20451;-88
2022/12/11 08:16:21;;;;;;;16.33;11.87;;;;;;;-1.60;100.00;150963.19;5101063;28;20974;-87
2022/12/11 08:19:07;;;;;;;19.43;12.10;;;;;;;-1.63;100.00;150956.78;5095001;28;20439;-88
2022/12/11 08:21:53;;;;;;;19.03;12.60;;;;;;;-1.57;100.00;150972.19;5101885;28;20432;-88
2022/12/11 08:24:38;;;;;;;16.47;11.20;;;;;;;-1.49;100.00;150992.69;5102956;28;20462;-87
2022/12/11 08:27:23;;;;;;;16.37;11.60;;;;;;;-1.46;100.00;151000.38;5106785;27;20443;-87
2022/12/11 08:30:10;;;;;;;14.60;10.80;;;;;;;-1.34;100.00;151031.13;5121321;27;20801;-88
2022/12/11 08:32:55;;;;;;;13.37;10.27;;;;;;;-1.29;100.00;151043.94;5112439;28;21041;-87
2022/12/11 08:35:42;;;;;;;17.57;11.43;;;;;;;-1.18;100.00;151069.56;5133422;27;20437;-88
2022/12/11 08:38:28;;;;;;;21.20;12.50;;;;;;;-1.10;100.00;151090.06;5108396;27;20432;-88
2022/12/11 08:41:15;;;;;;;18.90;12.60;;;;;;;-1.04;100.00;151105.47;5113191;28;20791;-87
2022/12/11 08:44:00;;;;;;;18.83;11.77;;;;;;;-1.03;100.00;151109.28;5100082;27;20920;-88
2022/12/11 08:46:45;;;;;;;30.77;19.90;;;;;;;-0.98;100.00;151120.88;5103232;27;20495;-88
2022/12/11 08:49:31;;;;;;;18.73;12.97;;;;;;;-0.96;100.00;151125.97;5097382;28;20424;-88
2022/12/11 08:52:18;;;;;;;14.37;10.83;;;;;;;-0.97;100.00;151123.41;5105161;28;21018;-87
2022/12/11 08:55:03;;;;;;;15.50;11.07;;;;;;;-0.96;100.00;151125.97;5106553;28;20753;-87
2022/12/11 08:57:49;;;;;;;17.77;11.70;;;;;;;-0.97;100.00;151124.69;5096287;28;20432;-87
2022/12/11 09:00:35;;;;;;;18.50;11.90;;;;;;;-0.97;100.00;151123.41;5109682;28;20455;-87
2022/12/11 09:03:20;;;;;;;16.73;10.93;;;;;;;-1.06;100.00;151101.59;5111288;28;20516;-87
2022/12/11 09:06:07;;;;;;;16.37;11.40;;;;;;;-1.04;100.00;151106.75;5102581;27;20513;-87
2022/12/11 09:08:55;;;;;;;15.17;11.27;;;;;;;-1.06;100.00;151101.59;5107137;28;20411;-87
2022/12/11 09:11:41;;;;;;;21.07;12.20;;;;;;;-1.14;100.00;151081.13;5103007;28;20518;-87
2022/12/11 09:14:27;;;;;;;17.37;12.57;;;;;;;-1.13;100.00;151082.38;5101249;27;20522;-87
2022/12/11 09:17:12;;;;;;;18.97;12.50;;;;;;;-1.17;100.00;151072.13;5111608;27;20438;-87
2022/12/11 09:19:57;;;;;;;18.50;12.70;;;;;;;-1.14;100.00;151081.13;5109309;27;20463;-87
2022/12/11 09:22:43;;;;;;;13.60;10.90;;;;;;;-1.15;100.00;151077.25;5110759;28;20440;-87
2022/12/11 09:25:29;;;;;;;21.20;13.37;;;;;;;-1.16;100.00;151074.66;5093068;28;20919;-87
2022/12/11 09:28:17;;;;;;;17.23;12.40;;;;;;;-1.13;100.00;151083.66;5095962;28;20828;-87
2022/12/11 09:31:02;;;;;;;21.17;14.70;;;;;;;-1.12;100.00;151084.97;5112256;28;20552;-87
2022/12/11 09:33:47;;;;;;;24.20;18.50;;;;;;;-1.13;100.00;151082.38;5107071;28;20457;-87
2022/12/11 09:36:33;;;;;;;17.20;13.37;;;;;;;-1.09;100.00;151092.66;5113584;27;20554;-87
2022/12/11 09:39:18;;;;;;;20.63;13.07;;;;;;;-1.07;100.00;151097.78;5107482;28;20420;-87
2022/12/11 09:42:09;;;;;;;16.10;12.93;;;;;;;-1.11;100.00;151087.53;5105383;28;20931;-87
2022/12/11 09:44:56;;;;;;;19.30;13.27;;;;;;;-1.13;100.00;151082.38;5099996;28;20479;-87
2022/12/11 09:47:43;;;;;;;18.20;12.83;;;;;;;-1.05;100.00;151102.88;5106267;28;20474;-87
2022/12/11 09:50:32;;;;;;;21.10;13.40;;;;;;;-0.99;100.00;151119.56;5095426;28;20518;-87
2022/12/11 09:53:22;;;;;;;16.27;12.00;;;;;;;-1.00;100.00;151117.00;5108478;28;20976;-87
2022/12/11 09:56:15;;;;;;;16.93;12.30;;;;;;;-0.99;100.00;151118.28;5105511;28;20455;-87
2022/12/11 09:59:09;;;;;;;17.30;12.17;;;;;;;-0.96;100.00;151125.97;5099061;28;20452;-87
2022/12/11 10:01:59;;;;;;;16.63;13.23;;;;;;;-0.86;100.00;151152.91;5098459;28;20436;-87
2022/12/11 10:04:51;;;;;;;17.97;13.60;;;;;;;-0.79;100.00;151169.56;5111384;27;20941;-87
2022/12/11 10:07:42;;;;;;;20.70;13.43;;;;;;;-0.75;100.00;151179.84;5100978;27;20432;-87
2022/12/11 10:10:36;;;;;;;17.93;12.30;;;;;;;-0.67;100.00;151200.34;5116738;27;20933;-87
2022/12/11 10:13:30;;;;;;;16.97;12.70;;;;;;;-0.64;100.00;151208.06;5131339;27;20442;-87
2022/12/11 10:16:22;;;;;;;16.47;11.67;;;;;;;-0.51;100.00;151241.41;5116978;28;20462;-87
2022/12/11 10:19:15;;;;;;;18.57;13.70;;;;;;;-0.49;100.00;151246.53;5094944;28;20401;-87
2022/12/11 10:22:01;;;;;;;18.43;13.80;;;;;;;-0.50;100.00;151243.94;5095064;28;20452;-87
2022/12/11 10:24:52;;;;;;;21.07;13.20;;;;;;;-0.51;100.00;151241.41;5112011;28;20530;-88
2022/12/11 10:27:40;;;;;;;17.30;11.70;;;;;;;-0.48;100.00;151249.09;5112107;28;20443;-87
2022/12/11 10:30:26;;;;;;;19.50;14.10;;;;;;;-0.43;100.00;151261.94;5096357;28;20514;-87
2022/12/11 10:33:19;;;;;;;17.30;11.83;;;;;;;-0.51;100.00;151240.09;5110891;27;20447;-88
2022/12/11 10:36:07;;;;;;;18.70;13.37;;;;;;;-0.50;100.00;151243.94;5101368;28;20435;-88
2022/12/11 10:38:52;;;;;;;20.07;12.37;;;;;;;-0.49;100.00;151246.53;5096979;28;20477;-87
2022/12/11 10:41:39;;;;;;;19.40;13.90;;;;;;;-0.39;100.00;151272.16;5113708;28;20460;-87
2022/12/11 10:44:26;;;;;;;17.43;12.50;;;;;;;-0.46;100.00;151254.22;5118613;28;20408;-88
2022/12/11 10:47:14;;;;;;;18.20;12.33;;;;;;;-0.48;100.00;151249.09;5118742;28;20793;-87
2022/12/11 10:50:03;;;;;;;16.00;11.53;;;;;;;-0.44;100.00;151258.03;5127174;28;20459;-88
2022/12/11 10:52:48;;;;;;;19.50;12.77;;;;;;;-0.39;100.00;151272.16;5122051;28;20400;-88
2022/12/11 10:55:41;;;;;;;18.50;13.17;;;;;;;-0.39;100.00;151272.16;5119275;28;20588;-88
2022/12/11 10:58:30;;;;;;;18.97;12.57;;;;;;;-0.39;100.00;151272.16;5100571;28;20419;-89
2022/12/11 11:01:19;;;;;;;16.77;12.87;;;;;;;-0.32;100.00;151290.09;5095713;28;20482;-88
2022/12/11 11:04:06;;;;;;;19.07;11.90;;;;;;;-0.30;100.00;151295.28;5106090;28;20442;-88
2022/12/11 11:07:02;;;;;;;17.93;11.37;;;;;;;-0.28;100.00;151299.09;5115929;28;20782;-89
2022/12/11 11:09:48;;;;;;;18.70;12.50;;;;;;;-0.32;100.00;151290.09;5116638;28;20562;-89
2022/12/11 11:12:37;;;;;;;19.63;13.03;;;;;;;-0.27;100.00;151302.97;5116481;28;20518;-89
2022/12/11 11:15:26;;;;;;;21.60;12.13;;;;;;;-0.25;100.00;151308.09;5121476;28;20938;-88
2022/12/11 11:18:16;;;;;;;18.23;12.10;;;;;;;-0.24;100.00;151309.38;5117512;28;20435;-90
2022/12/11 11:21:02;;;;;;;23.70;13.07;;;;;;;-0.23;100.00;151313.22;5116196;28;20435;-90
2022/12/11 11:23:49;;;;;;;16.53;11.90;;;;;;;-0.18;100.00;151326.03;5117850;28;20412;-89
2022/12/11 11:26:35;;;;;;;13.63;10.50;;;;;;;-0.19;100.00;151323.50;5115857;28;20428;-90
2022/12/11 11:29:26;;;;;;;15.57;11.23;;;;;;;-0.23;100.00;151313.22;5116569;28;20400;-90
2022/12/11 11:32:17;;;;;;;19.13;12.50;;;;;;;-0.22;100.00;151315.81;5123456;28;20467;-90
2022/12/11 11:35:16;;;;;;;18.97;12.57;;;;;;;-0.16;100.00;151331.16;5116323;28;20447;-90
2022/12/11 11:38:04;;;;;;;16.57;12.27;;;;;;;-0.17;100.00;151328.63;5116320;28;20399;-90
2022/12/11 11:40:55;;;;;;;17.87;13.30;;;;;;;-0.17;100.00;151327.34;5109344;28;20436;-90
2022/12/11 11:43:43;;;;;;;16.73;11.80;;;;;;;-0.11;100.00;151344.00;5124593;28;20428;-90
2022/12/11 11:46:32;;;;;;;16.90;12.20;;;;;;;-0.04;100.00;151361.97;5098167;28;20662;-90
2022/12/11 11:49:22;;;;;;;16.80;12.17;;;;;;;-0.02;100.00;151367.09;5095557;28;20405;-90
2022/12/11 11:52:12;;;;;;;18.00;11.93;;;;;;;-0.05;100.00;151358.09;5106434;28;20464;-91
2022/12/11 11:55:05;;;;;;;17.57;12.17;;;;;;;-0.04;100.00;151361.97;5111676;28;20451;-91
2022/12/11 11:57:55;;;;;;;13.97;11.73;;;;;;;-0.03;100.00;151364.53;5115472;28;20422;-91
2022/12/11 12:00:40;;;;;;;18.03;12.87;;;;;;;-0.03;100.00;151364.53;5115545;28;20474;-92
2022/12/11 12:03:26;;;;;;;17.30;12.40;;;;;;;-0.03;100.00;151364.53;5115100;28;20443;-92
2022/12/11 12:06:17;;;;;;;16.07;12.37;;;;;;;0.02;100.00;151374.81;5101401;28;20448;-91
2022/12/11 12:09:13;;;;;;;18.63;13.60;;;;;;;-0.01;100.00;151369.69;5114344;28;20470;-91
2022/12/11 12:12:09;;;;;;;18.70;12.60;;;;;;;0.09;100.00;151392.75;5113997;28;20505;-91
2022/12/11 12:15:18;;;;;;;16.43;11.53;;;;;;;0.04;100.00;151379.94;5116932;28;20431;-91
2022/12/11 12:18:10;;;;;;;17.13;12.10;;;;;;;-0.03;100.00;151364.53;5095038;28;20440;-92
2022/12/11 12:21:00;;;;;;;18.57;13.30;;;;;;;-0.03;100.00;151364.53;5102970;28;20536;-92
2022/12/11 12:23:58;;;;;;;18.67;13.13;;;;;;;0.02;100.00;151376.09;5094925;28;20425;-92
2022/12/11 12:26:47;;;;;;;14.60;10.90;;;;;;;-0.06;100.00;151356.88;5093485;28;20506;-91
2022/12/11 12:29:43;;;;;;;12.93;10.57;;;;;;;-0.02;100.00;151367.09;5103413;28;20444;-92
2022/12/11 12:32:40;;;;;;;14.47;10.60;;;;;;;-0.01;100.00;151368.41;5113122;28;20459;-91
2022/12/11 12:35:34;;;;;;;15.60;10.80;;;;;;;-0.01;100.00;151368.41;5115241;28;20432;-92
2022/12/11 12:38:23;;;;;;;16.03;10.80;;;;;;;0.01;100.00;151373.53;5107879;27;20452;-92
2022/12/11 12:41:15;;;;;;;14.67;10.30;;;;;;;-0.05;100.00;151358.09;5093260;28;20440;-92
2022/12/11 12:44:11;;;;;;;20.33;11.40;;;;;;;-0.05;100.00;151359.41;5098651;28;20795;-91
2022/12/11 12:46:59;;;;;;;15.40;11.40;;;;;;;-0.09;99.22;151349.16;5093668;28;20969;-92